Data for 01/15/2016

Time Sea-Level Adjusted Pressure Absolute Pressure Temperature Relative Humidity Dew Point   
(mb) (inHg) (mb) (inHg) (C) (F) (%) (C) (F)
00:05 1010 29.83 839 24.78 -3.4 25.8 50 -12.3 9.9
00:10 1010 29.83 839 24.78 -3.6 25.5 51 -12.4 9.7
00:15 1010 29.83 839 24.78 -3.7 25.3 51 -12.4 9.7
00:20 1010 29.83 839 24.78 -3.8 25.2 52 -12.4 9.7
00:25 1010 29.83 839 24.78 -3.7 25.3 52 -12.3 9.9
00:30 1010 29.83 839 24.78 -3.7 25.4 52 -12.2 10.1
00:35 1010 29.83 839 24.78 -3.8 25.2 53 -12 10.4
00:40 1010 29.83 839 24.78 -3.8 25.2 53 -12 10.4
00:45 1010 29.83 839 24.78 -3.8 25.1 54 -11.8 10.7
00:50 1010 29.83 839 24.78 -4.1 24.6 58 -11.3 11.6
00:55 1010 29.83 839 24.78 -4.3 24.3 57 -11.5 11.3
01:00 1010 29.83 839 24.78 -4.2 24.4 56 -11.8 10.8
01:05 1010 29.83 839 24.78 -4.1 24.6 56 -11.8 10.8
01:10 1010 29.83 839 24.78 -4.1 24.7 56 -11.6 11.1
01:15 1010 29.83 839 24.78 -4 24.8 54 -12 10.4
01:20 1010 29.83 839 24.78 -3.9 25.1 53 -12.2 10.1
01:25 1010 29.83 839 24.78 -3.9 25 54 -12 10.4
01:30 1010 29.83 839 24.78 -3.9 25 55 -11.8 10.8
01:35 1010 29.83 839 24.78 -4 24.7 55 -11.8 10.7
01:40 1010 29.83 839 24.78 -4.2 24.5 55 -11.9 10.6
01:45 1010 29.83 839 24.78 -4.3 24.2 54 -12.2 10
01:50 1010 29.83 839 24.78 -4.3 24.3 53 -12.5 9.6
01:55 1010 29.83 839 24.78 -4.2 24.4 52 -12.6 9.3
02:00 1010 29.83 839 24.78 -4.2 24.5 54 -12.2 10
02:05 1010 29.83 839 24.78 -4.4 24.2 54 -12.4 9.6
02:10 1010 29.83 839 24.78 -4.5 24 53 -12.6 9.4
02:15 1010 29.83 839 24.78 -4.3 24.2 52 -12.7 9.1
02:20 1010 29.83 839 24.78 -4.2 24.5 53 -12.4 9.7
02:25 1010 29.83 839 24.78 -4.5 23.9 55 -12.2 10.1
02:30 1010 29.83 839 24.78 -4.7 23.5 54 -12.7 9.1
02:35 1010 29.83 839 24.78 -4.7 23.5 53 -12.9 8.8
02:40 1010 29.83 839 24.78 -4.7 23.6 52 -13.1 8.5
02:45 1010 29.83 839 24.78 -4.7 23.5 53 -12.9 8.7
02:50 1010 29.83 839 24.78 -4.8 23.5 53 -12.9 8.7
02:55 1010 29.83 839 24.78 -4.8 23.3 53 -13.1 8.4
03:00 1010 29.83 839 24.78 -5.1 22.9 55 -12.8 9
03:05 1010 29.83 839 24.78 -5.4 22.2 56 -12.9 8.7
03:10 1010 29.83 839 24.78 -5.5 22 56 -13 8.7
03:15 1010 29.83 839 24.78 -5.6 22 56 -13 8.6
03:20 1010 29.83 839 24.78 -5.6 21.9 56 -13 8.6
03:25 1010 29.83 839 24.78 -5.8 21.6 56 -13.1 8.4
03:30 1010 29.83 839 24.78 -5.7 21.8 55 -13.3 8
03:35 1010 29.83 839 24.78 -5.5 22.1 54 -13.3 8
03:40 1010 29.83 839 24.78 -5.4 22.3 54 -13.3 8.1
03:45 1010 29.83 839 24.78 -5.4 22.3 53 -13.5 7.7
03:50 1010 29.83 839 24.78 -5.6 22 55 -13.3 8.1
03:55 1010 29.83 839 24.78 -6.4 20.6 57 -13.6 7.6
04:00 1010 29.83 839 24.78 -6.7 20 58 -13.5 7.6
04:05 1010 29.83 839 24.78 -7 19.4 60 -13.6 7.5
04:10 1010 29.83 839 24.78 -7.2 19.1 60 -13.6 7.5
04:15 1010 29.83 839 24.78 -7.1 19.3 59 -13.7 7.4
04:20 1010 29.83 839 24.78 -7.1 19.1 61 -13.4 7.8
04:25 1010 29.83 839 24.78 -7.4 18.7 62 -13.5 7.6
04:30 1010 29.83 839 24.78 -7.3 18.9 61 -13.6 7.5
04:35 1010 29.83 839 24.78 -7.4 18.7 62 -13.5 7.7
04:40 1010 29.83 839 24.78 -7.7 18.2 63 -13.6 7.6
04:45 1010 29.83 839 24.78 -7.8 18.1 64 -13.4 7.9
04:50 1010 29.83 839 24.78 -7.4 18.6 61 -13.8 7.2
04:55 1010 29.83 839 24.78 -6.7 19.9 59 -13.6 7.6
05:00 1010 29.83 839 24.78 -6.5 20.2 58 -13.4 7.8
05:05 1010 29.83 839 24.78 -6.5 20.4 58 -13.4 7.8
05:10 1010 29.83 839 24.78 -6.3 20.7 57 -13.5 7.7
05:15 1010 29.83 839 24.78 -6.4 20.5 58 -13.3 8.1
05:20 1010 29.83 839 24.78 -7.4 18.7 62 -13.4 7.8
05:25 1010 29.83 839 24.78 -7.8 18 62 -13.9 7
05:30 1010 29.83 839 24.78 -7.8 18.1 62 -13.8 7.2
05:35 1010 29.83 839 24.78 -7.6 18.3 60 -14 6.8
05:40 1010 29.83 839 24.78 -7.3 18.9 61 -13.7 7.4
05:45 1010 29.83 839 24.78 -7.6 18.4 63 -13.5 7.7
05:50 1010 29.83 839 24.78 -7.8 17.9 64 -13.5 7.6
05:55 1010 29.83 839 24.78 -8 17.6 65 -13.6 7.5
06:00 1010 29.83 839 24.78 -8 17.7 64 -13.7 7.4
06:05 1010 29.83 839 24.78 -7.6 18.3 62 -13.8 7.2
06:10 1010 29.83 839 24.78 -7.3 18.8 61 -13.5 7.6
06:15 1010 29.83 839 24.78 -7.2 19 60 -13.8 7.1
06:20 1010 29.83 839 24.78 -7 19.4 60 -13.5 7.7
06:25 1010 29.83 839 24.78 -7.3 18.8 62 -13.5 7.8
06:30 1010 29.83 839 24.78 -7.6 18.3 62 -13.8 7.2
06:35 1010 29.83 839 24.78 -7.7 18.1 63 -13.5 7.7
06:40 1010 29.83 839 24.78 -7.6 18.3 62 -13.7 7.3
06:45 1010 29.83 839 24.78 -7 19.3 57 -14.1 6.6
06:50 1010 29.83 839 24.78 -6.8 19.7 61 -13.1 8.4
06:55 1010 29.83 839 24.78 -7.3 18.9 63 -13.2 8.2
07:00 1010 29.83 839 24.78 -7.2 19.1 60 -13.6 7.4
07:05 1010 29.83 839 24.78 -6.8 19.7 60 -13.3 8
07:10 1010 29.83 839 24.78 -6.8 19.7 60 -13.4 7.9
07:15 1010 29.83 839 24.78 -6.7 19.9 61 -13 8.5
07:20 1010 29.83 839 24.78 -7 19.4 63 -13 8.6
07:25 1010 29.83 839 24.78 -7.1 19.2 64 -12.9 8.8
07:30 1010 29.83 839 24.78 -7.1 19.2 64 -12.8 8.9
07:35 1010 29.83 839 24.78 -7.2 19 65 -12.8 8.9
07:40 1010 29.83 839 24.78 -7.1 19.3 64 -12.8 8.9
07:45 1010 29.83 839 24.78 -7.1 19.3 63 -13 8.6
07:50 1010 29.83 839 24.78 -7.1 19.1 63 -13 8.6
07:55 1010 29.83 839 24.78 -7.2 19.1 63 -13.1 8.4
08:00 1010 29.83 839 24.78 -7.3 19 64 -12.9 8.8
08:05 1010 29.83 840 24.81 -7.4 18.7 65 -12.9 8.8
08:10 1010 29.83 840 24.81 -7.4 18.6 63 -13.2 8.2
08:15 1011 29.85 840 24.81 -7.2 19.1 61 -13.4 7.8
08:20 1011 29.85 840 24.81 -7.1 19.2 61 -13.4 7.9
08:25 1011 29.85 840 24.81 -7.1 19.2 59 -13.8 7.1
08:30 1011 29.85 840 24.81 -7.2 19.1 59 -13.8 7.1
08:35 1011 29.85 840 24.81 -7.2 19.1 59 -13.9 7
08:40 1011 29.85 840 24.81 -7.1 19.2 59 -13.9 7
08:45 1011 29.85 840 24.81 -7.1 19.1 60 -13.7 7.3
08:50 1011 29.85 840 24.81 -7.1 19.2 59 -13.8 7.2
08:55 1011 29.85 840 24.81 -6.9 19.5 58 -13.8 7.2
09:00 1011 29.85 840 24.81 -6.8 19.7 58 -13.7 7.3
09:05 1011 29.85 840 24.81 -6.7 19.9 60 -13.2 8.3
09:10 1011 29.85 840 24.81 -7.1 19.1 64 -12.8 9
09:15 1011 29.85 840 24.81 -7.2 19.1 64 -12.9 8.8
09:20 1011 29.85 840 24.81 -7.2 19 65 -12.7 9.2
09:25 1011 29.85 840 24.81 -7.4 18.7 66 -12.8 9
09:30 1011 29.85 840 24.81 -7.5 18.5 65 -13 8.6
09:35 1011 29.85 840 24.81 -7.5 18.6 63 -13.4 7.9
09:40 1011 29.85 840 24.81 -7.1 19.3 60 -13.5 7.6
09:45 1011 29.85 840 24.81 -6.7 19.9 59 -13.5 7.6
09:50 1011 29.85 840 24.81 -6.5 20.2 58 -13.5 7.7
09:55 1011 29.85 841 24.83 -6.5 20.4 59 -13.2 8.2
10:00 1011 29.85 841 24.83 -6.5 20.4 59 -13.2 8.2
10:05 1011 29.85 841 24.83 -6.4 20.5 59 -13.2 8.3
10:10 1012 29.88 841 24.83 -6.4 20.6 61 -12.8 9
10:15 1012 29.88 841 24.83 -6.4 20.5 61 -12.8 8.9
10:20 1012 29.88 841 24.83 -6.3 20.7 60 -12.8 9
10:25 1012 29.88 841 24.83 -6.2 20.9 60 -12.7 9.1
10:30 1012 29.88 841 24.83 -6 21.1 59 -12.8 8.9
10:35 1012 29.88 841 24.83 -5.9 21.4 58 -12.8 9
10:40 1012 29.88 841 24.83 -5.8 21.5 59 -12.5 9.4
10:45 1012 29.88 841 24.83 -5.8 21.6 58 -12.8 9
10:50 1012 29.88 841 24.83 -5.7 21.7 58 -12.8 8.9
10:55 1012 29.88 841 24.83 -5.4 22.3 57 -12.7 9.2
11:00 1012 29.88 841 24.83 -5.3 22.5 56 -12.8 9
11:05 1012 29.88 841 24.83 -5.1 22.8 55 -12.8 9
11:10 1012 29.88 841 24.83 -5.1 22.8 54 -12.9 8.8
11:15 1012 29.88 841 24.83 -5.1 22.8 55 -12.8 8.9
11:20 1012 29.88 841 24.83 -4.8 23.4 54 -12.8 9
11:25 1012 29.88 842 24.86 -4.3 24.3 52 -12.7 9.1
11:30 1012 29.88 842 24.86 -3.9 25 51 -12.6 9.3
11:35 1012 29.88 842 24.86 -3.7 25.3 50 -12.7 9.2
11:40 1013 29.91 842 24.86 -3.7 25.4 51 -12.4 9.7
11:45 1013 29.91 842 24.86 -4 24.8 52 -12.4 9.8
11:50 1013 29.91 842 24.86 -4.1 24.7 53 -12.3 9.9
11:55 1013 29.91 842 24.86 -3.9 24.9 53 -12.3 9.9
12:00 1013 29.91 842 24.86 -3.6 25.4 52 -12.2 10.1
12:05 1013 29.91 842 24.86 -3.4 25.9 52 -12 10.4
12:10 1013 29.91 842 24.86 -3.3 26.1 52 -11.8 10.7
12:15 1013 29.91 842 24.86 -3.2 26.2 52 -11.8 10.8
12:20 1013 29.91 842 24.86 -3.1 26.5 52 -11.7 11
12:25 1013 29.91 842 24.86 -3.1 26.5 51 -11.7 10.9
12:30 1013 29.91 842 24.86 -3.2 26.3 52 -11.8 10.8
12:35 1013 29.91 842 24.86 -3.3 26.1 51 -12 10.3
12:40 1013 29.91 842 24.86 -3.2 26.3 50 -12.2 10.1
12:45 1013 29.91 842 24.86 -3 26.5 49 -12.2 10
12:50 1013 29.91 842 24.86 -2.9 26.7 51 -11.8 10.7
12:55 1013 29.91 842 24.86 -2.9 26.8 50 -11.8 10.7
13:00 1013 29.91 842 24.86 -2.9 26.8 51 -11.6 11.2
13:05 1013 29.91 842 24.86 -2.8 26.9 51 -11.6 11.2
13:10 1013 29.91 842 24.86 -2.7 27.1 51 -11.5 11.3
13:15 1013 29.91 842 24.86 -2.8 27 52 -11.4 11.5
13:20 1013 29.91 842 24.86 -2.7 27.1 51 -11.6 11.2
13:25 1013 29.91 842 24.86 -2.7 27.2 52 -11.3 11.6
13:30 1013 29.91 842 24.86 -2.5 27.4 51 -11.4 11.4
13:35 1013 29.91 842 24.86 -2.4 27.8 51 -11.2 11.8
13:40 1013 29.91 842 24.86 -2.3 27.9 51 -11.2 11.9
13:45 1013 29.91 842 24.86 -2.2 28.1 52 -10.8 12.5
13:50 1013 29.91 842 24.86 -2 28.5 51 -10.7 12.7
13:55 1013 29.91 842 24.86 -1.7 28.9 51 -10.7 12.8
14:00 1013 29.91 842 24.86 -1.5 29.2 50 -10.8 12.6
14:05 1013 29.91 842 24.86 -1.6 29.2 50 -10.8 12.6
14:10 1013 29.91 842 24.86 -1.7 28.9 50 -10.9 12.3
14:15 1013 29.91 842 24.86 -1.9 28.5 49 -11.3 11.6
14:20 1013 29.91 842 24.86 -1.9 28.7 48 -11.4 11.5
14:25 1013 29.91 842 24.86 -1.9 28.7 48 -11.5 11.2
14:30 1013 29.91 842 24.86 -1.8 28.8 47 -11.6 11.2
14:35 1013 29.91 842 24.86 -1.8 28.8 47 -11.8 10.8
14:40 1013 29.91 842 24.86 -2.1 28.2 48 -11.7 10.9
14:45 1013 29.91 842 24.86 -2.1 28.2 49 -11.5 11.2
14:50 1013 29.91 842 24.86 -1.8 28.7 48 -11.4 11.4
14:55 1013 29.91 842 24.86 -1.6 29.1 47 -11.5 11.4
15:00 1013 29.91 842 24.86 -1.6 29.1 47 -11.5 11.4
15:05 1013 29.91 842 24.86 -1.9 28.6 48 -11.5 11.3
15:10 1013 29.91 842 24.86 -2.3 27.8 50 -11.4 11.4
15:15 1013 29.91 842 24.86 -2.3 27.9 50 -11.4 11.4
15:20 1013 29.91 842 24.86 -2.2 28 50 -11.4 11.5
15:25 1013 29.91 842 24.86 -2.2 28.1 50 -11.2 11.8
15:30 1013 29.91 842 24.86 -2 28.3 48 -11.8 10.8
15:35 1013 29.91 842 24.86 -1.9 28.5 45 -12.3 9.9
15:40 1013 29.91 842 24.86 -1.9 28.7 46 -11.9 10.5
15:45 1013 29.91 842 24.86 -1.8 28.7 46 -11.9 10.6
15:50 1013 29.91 842 24.86 -1.7 29 46 -11.9 10.6
15:55 1013 29.91 842 24.86 -1.5 29.3 46 -11.7 11
16:00 1013 29.91 842 24.86 -1.3 29.7 46 -11.4 11.4
16:05 1013 29.91 842 24.86 -1.1 30 45 -11.5 11.3
16:10 1013 29.91 842 24.86 -1.4 29.6 50 -10.6 12.9
16:15 1013 29.91 842 24.86 -1.4 29.6 48 -11 12.2
16:20 1013 29.91 842 24.86 -1.5 29.4 49 -11 12.3
16:25 1013 29.91 842 24.86 -1.5 29.3 49 -10.9 12.3
16:30 1013 29.91 842 24.86 -1.4 29.5 46 -11.6 11.1
16:35 1013 29.91 842 24.86 -1.6 29.1 49 -11.1 12
16:40 1013 29.91 842 24.86 -1.6 29.2 46 -11.8 10.7
16:45 1013 29.91 842 24.86 -1.5 29.2 43 -12.5 9.5
16:50 1013 29.91 842 24.86 -1.6 29.2 46 -11.9 10.6
16:55 1013 29.91 843 24.89 -1.5 29.2 47 -11.5 11.3
17:00 1013 29.91 843 24.89 -1.7 29 49 -11.1 12
17:05 1013 29.91 843 24.89 -1.9 28.6 49 -11.1 12
17:10 1013 29.91 843 24.89 -2 28.5 50 -11.1 12.1
17:15 1014 29.94 843 24.89 -1.9 28.5 50 -11 12.1
17:20 1014 29.94 843 24.89 -2 28.4 48 -11.5 11.2
17:25 1014 29.94 843 24.89 -2 28.4 49 -11.4 11.5
17:30 1014 29.94 843 24.89 -2 28.4 48 -11.7 11
17:35 1014 29.94 843 24.89 -2.1 28.2 50 -11.3 11.7
17:40 1014 29.94 843 24.89 -2.2 28.1 52 -10.9 12.5
17:45 1014 29.94 843 24.89 -2.2 28.1 48 -11.9 10.6
17:50 1014 29.94 843 24.89 -2.5 27.6 49 -11.8 10.8
17:55 1014 29.94 843 24.89 -2.5 27.6 50 -11.6 11.2
18:00 1014 29.94 843 24.89 -2.4 27.7 49 -11.7 11
18:05 1014 29.94 843 24.89 -2.4 27.8 50 -11.4 11.5
18:10 1014 29.94 843 24.89 -2.3 27.9 48 -11.9 10.6
18:15 1014 29.94 843 24.89 -2 28.3 49 -11.5 11.4
18:20 1014 29.94 843 24.89 -2 28.3 50 -11 12.2
18:25 1014 29.94 843 24.89 -2.1 28.2 50 -11.1 12
18:30 1014 29.94 843 24.89 -2.2 28.1 50 -11.2 11.8
18:35 1014 29.94 843 24.89 -2.2 28.1 51 -11 12.2
18:40 1014 29.94 843 24.89 -2.3 27.9 49 -11.6 11.2
18:45 1014 29.94 843 24.89 -2.4 27.6 51 -11.3 11.6
18:50 1014 29.94 843 24.89 -2.5 27.5 50 -11.6 11.1
18:55 1014 29.94 843 24.89 -2.6 27.4 53 -10.9 12.4
19:00 1014 29.94 844 24.92 -2.5 27.5 53 -10.9 12.3
19:05 1014 29.94 844 24.92 -2.4 27.6 53 -10.8 12.6
19:10 1014 29.94 844 24.92 -2.5 27.5 53 -10.8 12.6
19:15 1014 29.94 844 24.92 -2.5 27.5 54 -10.6 12.9
19:20 1014 29.94 844 24.92 -2.5 27.5 53 -10.8 12.6
19:25 1014 29.94 844 24.92 -2.6 27.4 54 -10.8 12.6
19:30 1014 29.94 844 24.92 -2.6 27.3 54 -10.8 12.6
19:35 1014 29.94 844 24.92 -2.7 27.2 52 -11.2 11.8
19:40 1014 29.94 844 24.92 -2.6 27.3 53 -10.9 12.5
19:45 1014 29.94 843 24.89 -2.7 27.1 53 -11 12.1
19:50 1014 29.94 843 24.89 -2.8 26.9 53 -11.1 12
19:55 1014 29.94 843 24.89 -2.9 26.8 52 -11.3 11.6
20:00 1014 29.94 843 24.89 -2.9 26.9 54 -11 12.2
20:05 1014 29.94 843 24.89 -2.9 26.8 54 -11 12.1
20:10 1014 29.94 844 24.92 -2.9 26.8 54 -11 12.2
20:15 1014 29.94 844 24.92 -2.9 26.8 55 -10.7 12.8
20:20 1014 29.94 844 24.92 -2.9 26.8 56 -10.4 13.3
20:25 1014 29.94 844 24.92 -3 26.7 58 -10.2 13.7
20:30 1015 29.97 844 24.92 -3 26.7 57 -10.3 13.4
20:35 1015 29.97 844 24.92 -3 26.7 58 -10.1 13.7
20:40 1015 29.97 844 24.92 -3 26.6 58 -10.2 13.6
20:45 1015 29.97 844 24.92 -3.1 26.5 59 -10.1 13.8
20:50 1015 29.97 844 24.92 -3.1 26.4 59 -10 14
20:55 1015 29.97 844 24.92 -3.3 26 60 -10 14
21:00 1015 29.97 844 24.92 -3.3 26 59 -10.2 13.6
21:05 1015 29.97 844 24.92 -3.2 26.2 59 -10.2 13.6
21:10 1015 29.97 844 24.92 -3.2 26.2 59 -10.1 13.7
21:15 1015 29.97 844 24.92 -3.3 26.1 59 -10.2 13.6
21:20 1015 29.97 844 24.92 -3.3 26 58 -10.4 13.2
21:25 1015 29.97 844 24.92 -3.4 25.8 59 -10.3 13.5
21:30 1015 29.97 844 24.92 -3.5 25.7 59 -10.5 13.1
21:35 1015 29.97 844 24.92 -3.6 25.5 60 -10.3 13.5
21:40 1015 29.97 844 24.92 -3.7 25.4 59 -10.5 13
21:45 1015 29.97 844 24.92 -3.7 25.3 60 -10.4 13.2
21:50 1015 29.97 844 24.92 -3.8 25.2 59 -10.6 12.9
21:55 1015 29.97 844 24.92 -4 24.9 60 -10.6 13
22:00 1015 29.97 844 24.92 -4 24.8 61 -10.5 13.1
22:05 1015 29.97 844 24.92 -3.9 25 60 -10.5 13
22:10 1015 29.97 844 24.92 -3.9 24.9 61 -10.3 13.4
22:15 1015 29.97 844 24.92 -3.9 25 60 -10.5 13.2
22:20 1015 29.97 844 24.92 -3.9 25 61 -10.3 13.5
22:25 1015 29.97 844 24.92 -3.9 25.1 61 -10.4 13.3
22:30 1015 29.97 844 24.92 -4 24.8 62 -10.3 13.5
22:35 1015 29.97 845 24.95 -4.1 24.6 62 -10.3 13.5
22:40 1015 29.97 845 24.95 -4 24.7 63 -10.1 13.8
22:45 1015 29.97 845 24.95 -3.9 24.9 63 -10 14
22:50 1015 29.97 845 24.95 -3.9 25 63 -10 13.9
22:55 1015 29.97 845 24.95 -4 24.8 62 -10.2 13.6
23:00 1015 29.97 845 24.95 -4.1 24.6 64 -9.9 14.2
23:05 1015 29.97 845 24.95 -4.1 24.7 64 -9.9 14.2
23:10 1015 29.97 845 24.95 -4 24.7 64 -9.9 14.1
23:15 1015 29.97 845 24.95 -4 24.8 64 -9.9 14.2
23:20 1016 30 845 24.95 -4 24.7 65 -9.8 14.4
23:25 1016 30 845 24.95 -4 24.7 65 -9.6 14.6
23:30 1016 30 845 24.95 -4 24.7 66 -9.6 14.8
23:35 1016 30 845 24.95 -4 24.7 65 -9.7 14.6
23:40 1016 30 845 24.95 -4.1 24.7 66 -9.6 14.8
23:45 1016 30 845 24.95 -4.1 24.5 65 -9.7 14.5
23:50 1016 30 845 24.95 -4.2 24.4 66 -9.7 14.6
23:55 1016 30 845 24.95 -4.3 24.3 66 -9.6 14.6
24:00 1016 30 845 24.95 -4.3 24.3 66 -9.7 14.6